createdAt,value
2022-08-31T00:01:02.318Z,13.73
2022-08-31T00:04:09.455Z,13.70
2022-08-31T00:06:39.059Z,13.82
2022-08-31T00:09:17.393Z,13.89
2022-08-31T00:11:50.371Z,13.97
2022-08-31T00:14:17.819Z,13.96
2022-08-31T00:16:45.124Z,13.98
2022-08-31T00:19:12.203Z,14.04
2022-08-31T00:21:46.990Z,14.01
2022-08-31T00:24:14.483Z,13.98
2022-08-31T00:26:43.216Z,14.02
2022-08-31T00:29:09.858Z,14.08
2022-08-31T00:31:42.785Z,14.05
2022-08-31T00:34:12.305Z,14.06
2022-08-31T00:36:40.842Z,14.06
2022-08-31T00:39:23.031Z,14.03
2022-08-31T00:41:55.000Z,14.02
2022-08-31T00:44:27.457Z,13.92
2022-08-31T00:46:53.928Z,13.83
2022-08-31T00:49:33.426Z,13.94
2022-08-31T00:52:10.625Z,13.82
2022-08-31T00:55:04.828Z,13.82
2022-08-31T01:01:45.873Z,14.02
2022-08-31T01:04:12.346Z,13.89
2022-08-31T01:07:20.713Z,13.91
2022-08-31T01:13:53.219Z,13.95
2022-08-31T01:30:38.404Z,13.91
2022-08-31T01:33:08.352Z,13.95
2022-08-31T01:35:35.825Z,13.98
2022-08-31T01:38:11.670Z,13.86
2022-08-31T01:41:05.273Z,13.80
2022-08-31T01:43:35.042Z,13.84
2022-08-31T01:46:02.751Z,13.80
2022-08-31T01:48:41.248Z,13.82
2022-08-31T01:51:25.346Z,13.86
2022-08-31T01:53:55.534Z,13.90
2022-08-31T01:56:24.184Z,13.89
2022-08-31T01:58:51.316Z,13.91
2022-08-31T02:01:32.965Z,13.87
2022-08-31T02:04:01.467Z,13.77
2022-08-31T02:10:10.460Z,13.80
2022-08-31T02:13:42.619Z,13.86
2022-08-31T02:16:14.325Z,13.87
2022-08-31T02:18:40.874Z,13.86
2022-08-31T02:24:44.332Z,13.96
2022-08-31T02:27:10.775Z,14.02
2022-08-31T02:29:37.228Z,13.96
2022-08-31T02:32:03.849Z,13.89
2022-08-31T02:34:30.224Z,13.88
2022-08-31T02:36:56.926Z,13.84
2022-08-31T02:39:23.448Z,13.91
2022-08-31T02:41:51.528Z,13.91
2022-08-31T02:44:18.011Z,13.89
2022-08-31T02:46:44.743Z,13.88
2022-08-31T02:49:11.181Z,13.99
2022-08-31T02:51:40.253Z,14.05
2022-08-31T02:54:06.758Z,14.03
2022-08-31T02:56:33.249Z,13.94
2022-08-31T02:58:59.721Z,13.94
2022-08-31T03:01:26.686Z,13.95
2022-08-31T03:03:53.347Z,13.96
2022-08-31T03:06:19.888Z,13.96
2022-08-31T03:08:49.545Z,14.02
2022-08-31T03:11:16.537Z,14.03
2022-08-31T03:13:43.246Z,14.07
2022-08-31T03:16:11.778Z,14.06
2022-08-31T03:18:38.328Z,14.11
2022-08-31T03:21:04.915Z,14.16
2022-08-31T03:23:31.341Z,14.12
2022-08-31T03:25:57.956Z,14.07
2022-08-31T03:28:24.382Z,14.10
2022-08-31T03:30:50.917Z,14.15
2022-08-31T03:33:17.488Z,14.07
2022-08-31T03:35:44.878Z,14.08
2022-08-31T03:38:12.762Z,14.06
2022-08-31T03:40:40.407Z,14.14
2022-08-31T03:43:11.634Z,14.18
2022-08-31T03:45:41.753Z,14.15
2022-08-31T03:48:12.588Z,14.18
2022-08-31T03:50:40.334Z,14.27
2022-08-31T03:53:07.557Z,14.33
2022-08-31T03:55:35.640Z,14.34
2022-08-31T03:58:02.512Z,14.34
2022-08-31T04:00:30.168Z,14.41
2022-08-31T04:02:59.790Z,14.36
2022-08-31T04:05:27.011Z,14.32
2022-08-31T04:07:53.560Z,14.38
2022-08-31T04:10:20.351Z,14.40
2022-08-31T04:12:46.810Z,14.44
2022-08-31T04:15:13.200Z,14.42
2022-08-31T04:17:39.650Z,14.42
2022-08-31T04:20:09.445Z,14.50
2022-08-31T04:22:35.980Z,14.41
2022-08-31T04:25:18.512Z,14.38
2022-08-31T04:27:50.301Z,14.36
2022-08-31T04:30:22.994Z,14.38
2022-08-31T04:32:50.130Z,14.41
2022-08-31T04:35:16.800Z,14.42
2022-08-31T04:37:46.682Z,14.40
2022-08-31T04:40:18.306Z,14.44
2022-08-31T04:42:46.207Z,14.46
2022-08-31T04:45:19.129Z,14.47
2022-08-31T04:47:47.976Z,14.49
2022-08-31T04:50:16.377Z,14.49
2022-08-31T04:52:43.582Z,14.48
2022-08-31T04:55:10.881Z,14.42
2022-08-31T04:57:38.654Z,14.50
2022-08-31T05:00:05.579Z,14.53
2022-08-31T05:02:33.256Z,14.56
2022-08-31T05:05:00.487Z,14.64
2022-08-31T05:07:27.026Z,14.68
2022-08-31T05:09:53.420Z,14.77
2022-08-31T05:12:27.745Z,14.87
2022-08-31T05:14:54.179Z,14.95
2022-08-31T05:17:20.635Z,15.08
2022-08-31T05:19:47.242Z,15.10
2022-08-31T05:22:26.637Z,15.14
2022-08-31T05:24:53.056Z,15.18
2022-08-31T05:27:19.627Z,15.23
2022-08-31T05:29:46.033Z,15.21
2022-08-31T05:32:12.468Z,15.21
2022-08-31T05:34:39.458Z,15.28
2022-08-31T05:37:05.937Z,15.28
2022-08-31T05:39:33.313Z,15.32
2022-08-31T05:41:59.690Z,15.35
2022-08-31T05:44:28.736Z,15.55
2022-08-31T05:46:57.477Z,15.83
2022-08-31T05:49:29.954Z,15.89
2022-08-31T05:51:59.652Z,15.80
2022-08-31T05:54:26.085Z,15.82
2022-08-31T05:56:52.418Z,15.76
2022-08-31T05:59:19.961Z,15.83
2022-08-31T06:01:46.404Z,15.81
2022-08-31T06:04:13.040Z,15.89
2022-08-31T06:06:39.518Z,15.93
2022-08-31T06:09:07.310Z,15.91
2022-08-31T06:11:34.798Z,15.82
2022-08-31T06:14:02.180Z,15.86
2022-08-31T06:16:30.235Z,15.92
2022-08-31T06:18:57.764Z,15.93
2022-08-31T06:21:30.926Z,15.96
2022-08-31T06:23:58.131Z,16.04
2022-08-31T06:26:25.556Z,16.06
2022-08-31T06:28:53.888Z,16.15
2022-08-31T06:31:25.073Z,16.19
2022-08-31T06:33:52.030Z,16.16
2022-08-31T06:36:19.536Z,16.21
2022-08-31T06:38:46.260Z,16.24
2022-08-31T06:41:14.633Z,16.15
2022-08-31T06:43:41.499Z,16.14
2022-08-31T06:46:08.056Z,16.08
2022-08-31T06:48:35.260Z,16.17
2022-08-31T06:51:01.750Z,16.23
2022-08-31T06:53:28.796Z,16.31
2022-08-31T06:55:55.387Z,16.29
2022-08-31T06:58:21.862Z,16.33
2022-08-31T07:00:49.381Z,16.37
2022-08-31T07:03:33.021Z,16.49
2022-08-31T07:06:03.116Z,16.53
2022-08-31T07:08:29.540Z,16.62
2022-08-31T07:10:55.987Z,16.74
2022-08-31T07:13:22.423Z,16.89
2022-08-31T07:15:48.841Z,16.94
2022-08-31T07:18:15.314Z,17.01
2022-08-31T07:20:41.698Z,17.05
2022-08-31T07:23:08.096Z,17.09
2022-08-31T07:25:36.242Z,17.13
2022-08-31T07:28:02.787Z,17.05
2022-08-31T07:30:33.187Z,17.00
2022-08-31T07:33:06.146Z,16.95
2022-08-31T07:35:32.597Z,17.10
2022-08-31T07:38:17.816Z,17.11
2022-08-31T07:41:02.808Z,17.16
2022-08-31T07:43:30.983Z,17.02
2022-08-31T07:45:57.399Z,17.05
2022-08-31T07:48:25.714Z,17.03
2022-08-31T07:50:54.280Z,17.04
2022-08-31T07:53:26.724Z,17.03
2022-08-31T07:55:55.566Z,17.06
2022-08-31T07:58:22.650Z,17.03
2022-08-31T08:00:50.159Z,17.05
2022-08-31T08:03:16.847Z,17.08
2022-08-31T08:05:43.322Z,17.13
2022-08-31T08:08:13.995Z,17.09
2022-08-31T08:10:43.542Z,17.03
2022-08-31T08:13:12.666Z,17.09
2022-08-31T08:15:40.612Z,17.15
2022-08-31T08:18:07.791Z,17.17
2022-08-31T08:20:37.422Z,17.23
2022-08-31T08:23:13.826Z,17.26
2022-08-31T08:25:55.366Z,17.26
2022-08-31T08:28:38.618Z,17.32
2022-08-31T08:31:06.367Z,17.29
2022-08-31T08:33:33.631Z,17.32
2022-08-31T08:36:03.184Z,17.31
2022-08-31T08:38:30.972Z,17.40
2022-08-31T08:41:01.578Z,17.38
2022-08-31T08:43:33.303Z,17.43
2022-08-31T08:46:15.149Z,17.51
2022-08-31T08:48:55.338Z,17.59
2022-08-31T08:51:25.525Z,17.74
2022-08-31T08:53:56.939Z,17.76
2022-08-31T08:56:33.509Z,18.05
2022-08-31T08:59:00.821Z,18.02
2022-08-31T09:01:28.974Z,17.94
2022-08-31T09:04:01.993Z,17.98
2022-08-31T09:06:45.585Z,18.00
2022-08-31T09:09:20.404Z,18.05
2022-08-31T09:11:53.114Z,18.10
2022-08-31T09:14:32.168Z,18.05
2022-08-31T09:16:58.573Z,18.17
2022-08-31T09:19:25.025Z,18.07
2022-08-31T09:21:55.652Z,18.17
2022-08-31T09:24:24.659Z,18.14
2022-08-31T09:26:54.448Z,18.10
2022-08-31T09:29:22.422Z,17.89
2022-08-31T09:31:48.859Z,18.01
2022-08-31T09:34:44.499Z,17.84
2022-08-31T09:37:24.584Z,17.84
2022-08-31T09:39:52.618Z,17.70
2022-08-31T09:42:33.285Z,17.67
2022-08-31T09:45:01.683Z,17.81
2022-08-31T09:47:33.424Z,17.69
2022-08-31T09:50:00.166Z,17.50
2022-08-31T09:52:47.143Z,17.38
2022-08-31T09:55:17.688Z,17.39
2022-08-31T09:57:49.640Z,17.40
2022-08-31T10:00:26.034Z,17.26
2022-08-31T10:02:56.725Z,17.33
2022-08-31T10:05:40.388Z,17.28
2022-08-31T10:08:11.445Z,17.36
2022-08-31T10:10:39.322Z,17.28
2022-08-31T10:13:13.369Z,17.31
2022-08-31T10:16:01.128Z,17.46
2022-08-31T10:18:39.464Z,17.53
2022-08-31T10:21:08.631Z,17.59
2022-08-31T10:23:36.061Z,17.63
2022-08-31T10:26:18.299Z,17.71
2022-08-31T10:28:50.913Z,17.78
2022-08-31T10:31:23.977Z,17.85
2022-08-31T10:34:15.082Z,17.90
2022-08-31T10:36:42.095Z,17.85
2022-08-31T10:39:27.848Z,18.06
2022-08-31T10:41:54.317Z,18.19
2022-08-31T10:44:50.045Z,18.06
2022-08-31T10:47:21.614Z,17.96
2022-08-31T10:50:00.801Z,18.05
2022-08-31T10:52:33.734Z,18.16
2022-08-31T10:55:10.072Z,18.04
2022-08-31T10:57:51.159Z,18.01
2022-08-31T11:00:40.692Z,18.18
2022-08-31T11:03:10.524Z,18.36
2022-08-31T11:05:40.920Z,18.60
2022-08-31T11:08:22.201Z,18.58
2022-08-31T11:10:51.968Z,18.55
2022-08-31T11:13:27.184Z,18.51
2022-08-31T11:15:53.636Z,18.21
2022-08-31T11:18:39.946Z,17.85
2022-08-31T11:21:15.597Z,17.59
2022-08-31T11:23:45.455Z,17.52
2022-08-31T11:26:21.031Z,17.46
2022-08-31T11:28:51.718Z,17.43
2022-08-31T11:31:25.861Z,17.46
2022-08-31T11:34:15.030Z,17.71
2022-08-31T11:36:50.470Z,17.66
2022-08-31T11:39:22.580Z,17.71
2022-08-31T11:41:50.958Z,17.50
2022-08-31T11:44:34.317Z,17.16
2022-08-31T11:47:20.035Z,16.79
2022-08-31T11:49:48.070Z,16.71
2022-08-31T11:52:24.961Z,16.74
2022-08-31T11:54:52.591Z,16.59
2022-08-31T11:57:21.158Z,16.52
2022-08-31T11:59:48.766Z,16.49
2022-08-31T12:02:21.514Z,16.45
2022-08-31T12:04:57.468Z,16.39
2022-08-31T12:07:36.545Z,16.36
2022-08-31T12:10:14.907Z,16.36
2022-08-31T12:13:03.752Z,16.32
2022-08-31T12:15:42.408Z,16.34
2022-08-31T12:18:30.116Z,16.31
2022-08-31T12:21:26.477Z,16.20
2022-08-31T12:23:52.861Z,16.22
2022-08-31T12:26:41.782Z,16.25
2022-08-31T12:29:16.717Z,16.24
2022-08-31T12:31:53.898Z,16.18
2022-08-31T12:34:23.620Z,16.22
2022-08-31T12:36:51.306Z,16.21
2022-08-31T12:39:23.049Z,16.20
2022-08-31T12:41:52.207Z,16.27
2022-08-31T12:44:20.611Z,16.40
2022-08-31T12:46:54.418Z,16.49
2022-08-31T12:49:36.522Z,16.45
2022-08-31T12:52:21.762Z,16.49
2022-08-31T12:54:54.233Z,16.33
2022-08-31T12:57:32.230Z,16.48
2022-08-31T13:00:02.277Z,16.58
2022-08-31T13:02:31.477Z,16.46
2022-08-31T13:05:00.100Z,16.60
2022-08-31T13:07:30.765Z,16.61
2022-08-31T13:10:11.952Z,16.77
2022-08-31T13:12:38.490Z,16.74
2022-08-31T13:15:09.009Z,16.66
2022-08-31T13:17:40.005Z,16.71
2022-08-31T13:20:07.118Z,16.57
2022-08-31T13:22:39.517Z,16.65
2022-08-31T13:25:17.053Z,16.68
2022-08-31T13:27:48.433Z,16.72
2022-08-31T13:30:19.097Z,16.50
2022-08-31T13:32:49.786Z,16.72
2022-08-31T13:35:19.952Z,16.91
2022-08-31T13:38:05.603Z,16.94
2022-08-31T13:40:34.324Z,16.95
2022-08-31T13:43:02.035Z,16.89
2022-08-31T13:45:40.082Z,16.67
2022-08-31T13:48:11.611Z,16.66
2022-08-31T13:50:53.419Z,16.59
2022-08-31T13:53:39.486Z,16.52
2022-08-31T13:56:41.541Z,16.62
2022-08-31T13:59:26.772Z,16.71
2022-08-31T14:01:55.897Z,16.67
2022-08-31T14:04:44.122Z,16.53
2022-08-31T14:07:23.891Z,16.54
2022-08-31T14:10:19.385Z,16.42
2022-08-31T14:12:52.877Z,16.50
2022-08-31T14:15:19.298Z,16.54
2022-08-31T14:18:23.816Z,16.58
2022-08-31T14:20:36.910Z,16.44
2022-08-31T14:23:24.531Z,16.43
2022-08-31T14:25:57.096Z,16.47
2022-08-31T14:28:42.367Z,16.45
2022-08-31T14:31:21.698Z,16.21
2022-08-31T14:33:55.987Z,16.22
2022-08-31T14:36:37.363Z,16.13
2022-08-31T14:39:04.655Z,16.29
2022-08-31T14:41:32.706Z,16.33
2022-08-31T14:44:07.030Z,16.36
2022-08-31T14:46:34.968Z,16.44
2022-08-31T14:49:01.659Z,16.44
2022-08-31T14:51:28.137Z,16.59
2022-08-31T14:53:57.144Z,16.49
2022-08-31T14:56:26.963Z,16.48
2022-08-31T14:58:54.606Z,16.40
2022-08-31T15:01:22.050Z,16.18
2022-08-31T15:03:48.932Z,16.07
2022-08-31T15:06:20.619Z,16.01
2022-08-31T15:08:47.898Z,15.95
2022-08-31T15:11:14.672Z,15.74
2022-08-31T15:13:41.568Z,15.69
2022-08-31T15:16:12.556Z,15.60
2022-08-31T15:18:42.422Z,15.51
2022-08-31T15:21:09.677Z,15.65
2022-08-31T15:23:37.047Z,15.53
2022-08-31T15:26:08.540Z,15.58
2022-08-31T15:28:42.025Z,15.50
2022-08-31T15:31:11.448Z,15.50
2022-08-31T15:33:39.840Z,15.46
2022-08-31T15:36:15.467Z,15.52
2022-08-31T15:38:43.695Z,15.56
2022-08-31T15:41:12.163Z,15.48
2022-08-31T15:43:41.529Z,15.50
2022-08-31T15:46:14.144Z,15.48
2022-08-31T15:48:45.246Z,15.42
2022-08-31T15:51:30.070Z,15.33
2022-08-31T15:54:20.773Z,15.22
2022-08-31T15:56:44.489Z,15.24
2022-08-31T15:59:11.493Z,15.16
2022-08-31T16:01:38.303Z,15.25
2022-08-31T16:04:05.090Z,15.24
2022-08-31T16:06:32.727Z,15.10
2022-08-31T16:08:59.532Z,15.19
2022-08-31T16:11:28.155Z,15.22
2022-08-31T16:14:01.274Z,15.25
2022-08-31T16:16:31.010Z,15.26
2022-08-31T16:18:58.523Z,15.35
2022-08-31T16:21:26.668Z,15.31
2022-08-31T16:23:59.527Z,15.30
2022-08-31T16:26:30.307Z,15.30
2022-08-31T16:28:57.610Z,15.37
2022-08-31T16:31:24.757Z,15.40
2022-08-31T16:33:51.747Z,15.41
2022-08-31T16:36:18.965Z,15.39
2022-08-31T16:38:46.208Z,15.38
2022-08-31T16:41:13.165Z,15.36
2022-08-31T16:43:40.046Z,15.39
2022-08-31T16:46:24.195Z,15.33
2022-08-31T16:49:12.126Z,15.41
2022-08-31T16:51:38.684Z,15.44
2022-08-31T16:54:06.402Z,15.29
2022-08-31T16:56:34.573Z,15.32
2022-08-31T16:59:01.637Z,15.34
2022-08-31T17:01:30.477Z,15.36
2022-08-31T17:03:58.342Z,15.36
2022-08-31T17:06:28.958Z,15.28
2022-08-31T17:08:56.698Z,15.25
2022-08-31T17:11:25.395Z,15.17
2022-08-31T17:13:53.578Z,15.08
2022-08-31T17:16:23.199Z,15.14
2022-08-31T17:18:54.229Z,15.14
2022-08-31T17:21:23.028Z,15.02
2022-08-31T17:23:51.045Z,15.03
2022-08-31T17:26:18.439Z,15.04
2022-08-31T17:28:51.684Z,14.99
2022-08-31T17:31:18.144Z,14.94
2022-08-31T17:33:44.847Z,14.89
2022-08-31T17:36:11.301Z,14.80
2022-08-31T17:38:37.983Z,14.74
2022-08-31T17:41:05.814Z,14.69
2022-08-31T17:43:37.427Z,14.62
2022-08-31T17:46:05.134Z,14.55
2022-08-31T17:48:31.733Z,14.54
2022-08-31T17:50:58.850Z,14.51
2022-08-31T17:53:25.370Z,14.53
2022-08-31T17:55:55.226Z,14.44
2022-08-31T17:58:21.946Z,14.43
2022-08-31T18:00:49.643Z,14.48
2022-08-31T18:03:17.144Z,14.49
2022-08-31T18:05:44.426Z,14.52
2022-08-31T18:08:10.926Z,14.54
2022-08-31T18:10:38.887Z,14.54
2022-08-31T18:13:06.405Z,14.48
2022-08-31T18:15:33.459Z,14.54
2022-08-31T18:18:00.499Z,14.47
2022-08-31T18:20:28.506Z,14.45
2022-08-31T18:22:54.936Z,14.44
2022-08-31T18:25:21.408Z,14.43
2022-08-31T18:27:48.948Z,14.33
2022-08-31T18:30:15.616Z,14.38
2022-08-31T18:32:42.548Z,14.39
2022-08-31T18:35:17.585Z,14.44
2022-08-31T18:37:44.779Z,14.39
2022-08-31T18:40:30.002Z,14.38
2022-08-31T18:43:15.247Z,14.38
2022-08-31T18:45:41.722Z,14.36
2022-08-31T18:48:24.357Z,14.31
2022-08-31T18:50:51.901Z,14.36
2022-08-31T18:53:27.848Z,14.33
2022-08-31T18:55:55.331Z,14.30
2022-08-31T18:58:21.875Z,14.28
2022-08-31T19:00:56.102Z,14.36
2022-08-31T19:03:22.642Z,14.37
2022-08-31T19:05:49.096Z,14.39
2022-08-31T19:08:15.519Z,14.32
2022-08-31T19:10:42.072Z,14.36
2022-08-31T19:13:08.518Z,14.38
2022-08-31T19:15:38.003Z,14.41
2022-08-31T19:18:05.523Z,14.38
2022-08-31T19:20:33.308Z,14.35
2022-08-31T19:23:00.487Z,14.36
2022-08-31T19:25:27.465Z,14.29
2022-08-31T19:27:55.535Z,14.26
2022-08-31T19:30:27.264Z,14.21
2022-08-31T19:32:56.084Z,14.21
2022-08-31T19:35:22.740Z,14.28
2022-08-31T19:37:51.810Z,14.25
2022-08-31T19:40:18.868Z,14.22
2022-08-31T19:43:41.558Z,14.20
2022-08-31T19:45:48.517Z,14.20
2022-08-31T19:48:17.268Z,14.21
2022-08-31T19:50:43.877Z,14.22
2022-08-31T19:53:14.139Z,14.20
2022-08-31T19:55:50.159Z,14.19
2022-08-31T19:58:17.645Z,14.21
2022-08-31T20:00:44.114Z,14.17
2022-08-31T20:03:13.319Z,14.17
2022-08-31T20:05:43.592Z,14.14
2022-08-31T20:08:10.851Z,14.18
2022-08-31T20:10:41.072Z,14.21
2022-08-31T20:13:09.886Z,14.25
2022-08-31T20:15:44.249Z,14.17
2022-08-31T20:18:12.004Z,14.18
2022-08-31T20:20:45.110Z,14.14
2022-08-31T20:23:16.648Z,14.03
2022-08-31T20:25:44.518Z,14.04
2022-08-31T20:28:11.410Z,14.08
2022-08-31T20:30:38.695Z,14.04
2022-08-31T20:33:05.953Z,14.03
2022-08-31T20:35:33.801Z,13.97
2022-08-31T20:38:00.251Z,13.93
2022-08-31T20:40:28.439Z,13.90
2022-08-31T20:42:55.691Z,13.93
2022-08-31T20:45:22.809Z,13.94
2022-08-31T20:48:07.785Z,13.94
2022-08-31T20:50:35.269Z,13.87
2022-08-31T20:53:01.801Z,13.84
2022-08-31T20:55:28.213Z,13.81
2022-08-31T20:57:54.675Z,13.85
2022-08-31T21:00:21.164Z,13.86
2022-08-31T21:02:49.873Z,13.80
2022-08-31T21:08:04.393Z,13.89
2022-08-31T21:10:36.811Z,13.80
2022-08-31T21:13:05.456Z,13.81
2022-08-31T21:15:32.748Z,13.82
2022-08-31T21:17:59.639Z,13.90
2022-08-31T21:20:26.445Z,13.93
2022-08-31T21:22:53.116Z,13.86
2022-08-31T21:25:19.552Z,13.80
2022-08-31T21:27:47.028Z,13.85
2022-08-31T21:30:13.502Z,13.79
2022-08-31T21:32:40.658Z,13.74
2022-08-31T21:35:08.814Z,13.71
2022-08-31T21:37:35.352Z,13.74
2022-08-31T21:40:01.954Z,13.70
2022-08-31T21:42:28.508Z,13.84
2022-08-31T21:44:54.978Z,13.84
2022-08-31T21:47:21.411Z,13.83
2022-08-31T21:49:49.845Z,13.87
2022-08-31T21:52:16.677Z,13.92
2022-08-31T21:54:44.791Z,13.92
2022-08-31T21:57:12.796Z,13.92
2022-08-31T21:59:39.330Z,13.90
2022-08-31T22:02:09.333Z,13.91
2022-08-31T22:04:37.697Z,13.81
2022-08-31T22:07:07.374Z,13.79
2022-08-31T22:09:34.948Z,13.70
2022-08-31T22:12:06.260Z,13.70
2022-08-31T22:14:35.813Z,13.80
2022-08-31T22:17:06.890Z,13.79
2022-08-31T22:19:36.726Z,13.78
2022-08-31T22:22:05.059Z,13.80
2022-08-31T22:24:32.514Z,13.94
2022-08-31T22:27:03.725Z,13.92
2022-08-31T22:29:31.980Z,13.84
2022-08-31T22:32:00.676Z,13.84
2022-08-31T22:34:27.127Z,13.89
2022-08-31T22:36:54.411Z,13.97
2022-08-31T22:39:22.838Z,13.98
2022-08-31T22:41:49.423Z,14.04
2022-08-31T22:44:17.492Z,13.88
2022-08-31T22:46:44.773Z,13.88
2022-08-31T22:49:11.258Z,13.88
2022-08-31T22:51:38.376Z,13.77
2022-08-31T22:54:04.900Z,13.80
2022-08-31T22:56:32.515Z,13.81
2022-08-31T22:59:00.019Z,13.75
2022-08-31T23:01:35.678Z,13.73
2022-08-31T23:04:06.645Z,13.69
2022-08-31T23:06:34.361Z,13.67
2022-08-31T23:09:02.682Z,13.70
2022-08-31T23:11:29.383Z,13.70
2022-08-31T23:13:57.292Z,13.76
2022-08-31T23:16:35.530Z,13.76
2022-08-31T23:19:12.591Z,13.73
2022-08-31T23:21:45.893Z,13.67
2022-08-31T23:24:13.865Z,13.72
2022-08-31T23:26:40.735Z,13.74
2022-08-31T23:29:09.356Z,13.71
2022-08-31T23:31:37.041Z,13.70
2022-08-31T23:34:05.016Z,13.75
2022-08-31T23:36:31.481Z,13.77
2022-08-31T23:38:58.647Z,13.78
2022-08-31T23:41:30.115Z,13.81
2022-08-31T23:43:58.783Z,13.78
2022-08-31T23:46:25.388Z,13.75
2022-08-31T23:48:53.215Z,13.71
2022-08-31T23:51:20.861Z,13.73
2022-08-31T23:53:55.193Z,13.70
2022-08-31T23:56:30.280Z,13.73
2022-08-31T23:58:57.534Z,13.71
